sensor_id;sensor_type;location;lat;lon;timestamp;temperature;humidity
46758;DHT22;32509;47.750;-3.396;2024-03-22T00:01:49;12.20;99.90
46758;DHT22;32509;47.750;-3.396;2024-03-22T00:04:18;12.20;99.90
46758;DHT22;32509;47.750;-3.396;2024-03-22T00:06:45;12.10;99.90
46758;DHT22;32509;47.750;-3.396;2024-03-22T00:09:11;12.10;99.90
46758;DHT22;32509;47.750;-3.396;2024-03-22T00:11:39;12.10;99.90
46758;DHT22;32509;47.750;-3.396;2024-03-22T00:14:06;12.00;99.90
46758;DHT22;32509;47.750;-3.396;2024-03-22T00:16:32;12.00;99.90
46758;DHT22;32509;47.750;-3.396;2024-03-22T00:18:58;12.00;99.90
46758;DHT22;32509;47.750;-3.396;2024-03-22T00:21:24;12.00;99.90
46758;DHT22;32509;47.750;-3.396;2024-03-22T00:23:49;12.10;99.90
46758;DHT22;32509;47.750;-3.396;2024-03-22T00:26:15;12.10;99.90
46758;DHT22;32509;47.750;-3.396;2024-03-22T00:28:41;12.10;99.90
46758;DHT22;32509;47.750;-3.396;2024-03-22T00:31:08;12.10;99.90
46758;DHT22;32509;47.750;-3.396;2024-03-22T00:33:34;12.10;99.90
46758;DHT22;32509;47.750;-3.396;2024-03-22T00:36:00;12.10;99.90
46758;DHT22;32509;47.750;-3.396;2024-03-22T00:38:26;12.00;99.90
46758;DHT22;32509;47.750;-3.396;2024-03-22T00:40:52;12.10;99.90
46758;DHT22;32509;47.750;-3.396;2024-03-22T00:43:17;12.10;99.90
46758;DHT22;32509;47.750;-3.396;2024-03-22T00:45:43;12.10;99.90
46758;DHT22;32509;47.750;-3.396;2024-03-22T00:48:09;12.10;99.90
46758;DHT22;32509;47.750;-3.396;2024-03-22T00:50:37;12.10;99.90
46758;DHT22;32509;47.750;-3.396;2024-03-22T00:53:03;12.10;99.90
46758;DHT22;32509;47.750;-3.396;2024-03-22T00:55:31;12.10;99.90
46758;DHT22;32509;47.750;-3.396;2024-03-22T00:57:57;12.00;99.90
46758;DHT22;32509;47.750;-3.396;2024-03-22T01:00:23;12.00;99.90
46758;DHT22;32509;47.750;-3.396;2024-03-22T01:02:50;12.00;99.90
46758;DHT22;32509;47.750;-3.396;2024-03-22T01:05:16;12.00;99.90
46758;DHT22;32509;47.750;-3.396;2024-03-22T01:07:42;12.10;99.90
46758;DHT22;32509;47.750;-3.396;2024-03-22T01:10:08;12.10;99.90
46758;DHT22;32509;47.750;-3.396;2024-03-22T01:12:34;12.10;99.90
46758;DHT22;32509;47.750;-3.396;2024-03-22T01:15:00;12.10;99.90
46758;DHT22;32509;47.750;-3.396;2024-03-22T01:17:26;12.10;99.90
46758;DHT22;32509;47.750;-3.396;2024-03-22T01:19:52;12.10;99.90
46758;DHT22;32509;47.750;-3.396;2024-03-22T01:22:18;12.10;99.90
46758;DHT22;32509;47.750;-3.396;2024-03-22T01:24:44;12.10;99.90
46758;DHT22;32509;47.750;-3.396;2024-03-22T01:27:10;12.10;99.90
46758;DHT22;32509;47.750;-3.396;2024-03-22T01:29:36;12.10;99.90
46758;DHT22;32509;47.750;-3.396;2024-03-22T01:32:03;12.10;99.90
46758;DHT22;32509;47.750;-3.396;2024-03-22T01:34:29;12.20;99.90
46758;DHT22;32509;47.750;-3.396;2024-03-22T01:36:55;12.20;99.90
46758;DHT22;32509;47.750;-3.396;2024-03-22T01:39:21;12.10;99.90
46758;DHT22;32509;47.750;-3.396;2024-03-22T01:41:48;12.20;99.90
46758;DHT22;32509;47.750;-3.396;2024-03-22T01:44:14;12.10;99.90
46758;DHT22;32509;47.750;-3.396;2024-03-22T01:46:44;12.10;99.90
46758;DHT22;32509;47.750;-3.396;2024-03-22T01:49:12;12.10;99.90
46758;DHT22;32509;47.750;-3.396;2024-03-22T01:51:39;12.10;99.90
46758;DHT22;32509;47.750;-3.396;2024-03-22T01:54:08;12.10;99.90
46758;DHT22;32509;47.750;-3.396;2024-03-22T01:56:37;12.20;99.90
46758;DHT22;32509;47.750;-3.396;2024-03-22T01:59:04;12.20;99.90
46758;DHT22;32509;47.750;-3.396;2024-03-22T02:01:31;12.10;99.90
46758;DHT22;32509;47.750;-3.396;2024-03-22T02:03:56;12.10;99.90
46758;DHT22;32509;47.750;-3.396;2024-03-22T02:06:22;12.10;99.90
46758;DHT22;32509;47.750;-3.396;2024-03-22T02:08:48;12.10;99.90
46758;DHT22;32509;47.750;-3.396;2024-03-22T02:11:14;12.10;99.90
46758;DHT22;32509;47.750;-3.396;2024-03-22T02:13:40;12.00;99.90
46758;DHT22;32509;47.750;-3.396;2024-03-22T02:16:06;12.00;99.90
46758;DHT22;32509;47.750;-3.396;2024-03-22T02:18:31;12.00;99.90
46758;DHT22;32509;47.750;-3.396;2024-03-22T02:20:58;12.00;99.90
46758;DHT22;32509;47.750;-3.396;2024-03-22T02:23:41;12.00;99.90
46758;DHT22;32509;47.750;-3.396;2024-03-22T02:26:07;12.00;99.90
46758;DHT22;32509;47.750;-3.396;2024-03-22T02:28:35;12.10;99.90
46758;DHT22;32509;47.750;-3.396;2024-03-22T02:31:02;12.10;99.90
46758;DHT22;32509;47.750;-3.396;2024-03-22T02:33:28;12.10;99.90
46758;DHT22;32509;47.750;-3.396;2024-03-22T02:35:53;12.10;99.90
46758;DHT22;32509;47.750;-3.396;2024-03-22T02:38:19;12.10;99.90
46758;DHT22;32509;47.750;-3.396;2024-03-22T02:40:47;12.10;99.90
46758;DHT22;32509;47.750;-3.396;2024-03-22T02:43:13;12.10;99.90
46758;DHT22;32509;47.750;-3.396;2024-03-22T02:45:39;12.10;99.90
46758;DHT22;32509;47.750;-3.396;2024-03-22T02:48:06;12.10;99.90
46758;DHT22;32509;47.750;-3.396;2024-03-22T02:50:35;12.10;99.90
46758;DHT22;32509;47.750;-3.396;2024-03-22T02:53:02;12.10;99.90
46758;DHT22;32509;47.750;-3.396;2024-03-22T02:55:28;12.10;99.90
46758;DHT22;32509;47.750;-3.396;2024-03-22T02:57:55;12.10;99.90
46758;DHT22;32509;47.750;-3.396;2024-03-22T03:00:21;12.00;99.90
46758;DHT22;32509;47.750;-3.396;2024-03-22T03:02:48;12.10;99.90
46758;DHT22;32509;47.750;-3.396;2024-03-22T03:05:14;12.10;99.90
46758;DHT22;32509;47.750;-3.396;2024-03-22T03:07:40;12.10;99.90
46758;DHT22;32509;47.750;-3.396;2024-03-22T03:10:06;12.00;99.90
46758;DHT22;32509;47.750;-3.396;2024-03-22T03:12:32;12.00;99.90
46758;DHT22;32509;47.750;-3.396;2024-03-22T03:14:58;12.00;99.90
46758;DHT22;32509;47.750;-3.396;2024-03-22T03:17:24;12.00;99.90
46758;DHT22;32509;47.750;-3.396;2024-03-22T03:19:49;11.90;99.90
46758;DHT22;32509;47.750;-3.396;2024-03-22T03:22:15;12.00;99.90
46758;DHT22;32509;47.750;-3.396;2024-03-22T03:24:41;12.00;99.90
46758;DHT22;32509;47.750;-3.396;2024-03-22T03:27:07;12.00;99.90
46758;DHT22;32509;47.750;-3.396;2024-03-22T03:29:33;12.00;99.90
46758;DHT22;32509;47.750;-3.396;2024-03-22T03:31:59;12.00;99.90
46758;DHT22;32509;47.750;-3.396;2024-03-22T03:34:24;12.00;99.90
46758;DHT22;32509;47.750;-3.396;2024-03-22T03:36:50;12.00;99.90
46758;DHT22;32509;47.750;-3.396;2024-03-22T03:39:16;12.00;99.90
46758;DHT22;32509;47.750;-3.396;2024-03-22T03:41:41;12.00;99.90
46758;DHT22;32509;47.750;-3.396;2024-03-22T03:44:07;12.00;99.90
46758;DHT22;32509;47.750;-3.396;2024-03-22T03:46:33;12.00;99.90
46758;DHT22;32509;47.750;-3.396;2024-03-22T03:48:59;12.00;99.90
46758;DHT22;32509;47.750;-3.396;2024-03-22T03:51:24;12.00;99.90
46758;DHT22;32509;47.750;-3.396;2024-03-22T03:53:50;12.00;99.90
46758;DHT22;32509;47.750;-3.396;2024-03-22T03:56:16;12.00;99.90
46758;DHT22;32509;47.750;-3.396;2024-03-22T03:58:42;12.00;99.90
46758;DHT22;32509;47.750;-3.396;2024-03-22T04:01:08;12.00;99.90
46758;DHT22;32509;47.750;-3.396;2024-03-22T04:03:35;12.10;99.90
46758;DHT22;32509;47.750;-3.396;2024-03-22T04:06:01;12.10;99.90
46758;DHT22;32509;47.750;-3.396;2024-03-22T04:08:27;12.00;99.90
46758;DHT22;32509;47.750;-3.396;2024-03-22T04:10:53;12.00;99.90
46758;DHT22;32509;47.750;-3.396;2024-03-22T04:13:21;12.10;99.90
46758;DHT22;32509;47.750;-3.396;2024-03-22T04:15:47;12.10;99.90
46758;DHT22;32509;47.750;-3.396;2024-03-22T04:18:13;12.10;99.90
46758;DHT22;32509;47.750;-3.396;2024-03-22T04:20:38;12.10;99.90
46758;DHT22;32509;47.750;-3.396;2024-03-22T04:23:04;12.10;99.90
46758;DHT22;32509;47.750;-3.396;2024-03-22T04:25:30;12.10;99.90
46758;DHT22;32509;47.750;-3.396;2024-03-22T04:27:55;12.10;99.90
46758;DHT22;32509;47.750;-3.396;2024-03-22T04:30:21;12.20;99.90
46758;DHT22;32509;47.750;-3.396;2024-03-22T04:32:47;12.20;99.90
46758;DHT22;32509;47.750;-3.396;2024-03-22T04:35:13;12.20;99.90
46758;DHT22;32509;47.750;-3.396;2024-03-22T04:37:39;12.10;99.90
46758;DHT22;32509;47.750;-3.396;2024-03-22T04:40:05;12.10;99.90
46758;DHT22;32509;47.750;-3.396;2024-03-22T04:42:31;12.20;99.90
46758;DHT22;32509;47.750;-3.396;2024-03-22T04:44:57;12.10;99.90
46758;DHT22;32509;47.750;-3.396;2024-03-22T04:47:23;12.20;99.90
46758;DHT22;32509;47.750;-3.396;2024-03-22T04:49:49;12.10;99.90
46758;DHT22;32509;47.750;-3.396;2024-03-22T04:52:15;12.20;99.90
46758;DHT22;32509;47.750;-3.396;2024-03-22T04:54:41;12.20;99.90
46758;DHT22;32509;47.750;-3.396;2024-03-22T04:57:06;12.20;99.90
46758;DHT22;32509;47.750;-3.396;2024-03-22T04:59:32;12.20;99.90
46758;DHT22;32509;47.750;-3.396;2024-03-22T05:01:58;12.20;99.90
46758;DHT22;32509;47.750;-3.396;2024-03-22T05:04:24;12.10;99.90
46758;DHT22;32509;47.750;-3.396;2024-03-22T05:06:49;12.20;99.90
46758;DHT22;32509;47.750;-3.396;2024-03-22T05:09:15;12.10;99.90
46758;DHT22;32509;47.750;-3.396;2024-03-22T05:11:41;12.10;99.90
46758;DHT22;32509;47.750;-3.396;2024-03-22T05:14:07;12.10;99.90
46758;DHT22;32509;47.750;-3.396;2024-03-22T05:16:33;12.10;99.90
46758;DHT22;32509;47.750;-3.396;2024-03-22T05:18:59;12.10;99.90
46758;DHT22;32509;47.750;-3.396;2024-03-22T05:21:25;12.10;99.90
46758;DHT22;32509;47.750;-3.396;2024-03-22T05:23:50;12.00;99.90
46758;DHT22;32509;47.750;-3.396;2024-03-22T05:26:16;12.00;99.90
46758;DHT22;32509;47.750;-3.396;2024-03-22T05:28:44;12.00;99.90
46758;DHT22;32509;47.750;-3.396;2024-03-22T05:31:09;12.00;99.90
46758;DHT22;32509;47.750;-3.396;2024-03-22T05:33:35;12.00;99.90
46758;DHT22;32509;47.750;-3.396;2024-03-22T05:36:01;12.10;99.90
46758;DHT22;32509;47.750;-3.396;2024-03-22T05:38:26;12.10;99.90
46758;DHT22;32509;47.750;-3.396;2024-03-22T05:40:52;12.10;99.90
46758;DHT22;32509;47.750;-3.396;2024-03-22T05:43:18;12.10;99.90
46758;DHT22;32509;47.750;-3.396;2024-03-22T05:45:44;12.00;99.90
46758;DHT22;32509;47.750;-3.396;2024-03-22T05:48:09;12.10;99.90
46758;DHT22;32509;47.750;-3.396;2024-03-22T05:50:35;12.00;99.90
46758;DHT22;32509;47.750;-3.396;2024-03-22T05:53:01;12.00;99.90
46758;DHT22;32509;47.750;-3.396;2024-03-22T05:55:27;11.90;99.90
46758;DHT22;32509;47.750;-3.396;2024-03-22T05:57:56;11.90;99.90
46758;DHT22;32509;47.750;-3.396;2024-03-22T06:00:22;11.90;99.90
46758;DHT22;32509;47.750;-3.396;2024-03-22T06:02:48;11.90;99.90
46758;DHT22;32509;47.750;-3.396;2024-03-22T06:05:13;11.90;99.90
46758;DHT22;32509;47.750;-3.396;2024-03-22T06:07:39;11.90;99.90
46758;DHT22;32509;47.750;-3.396;2024-03-22T06:10:09;11.90;99.90
46758;DHT22;32509;47.750;-3.396;2024-03-22T06:12:38;11.90;99.90
46758;DHT22;32509;47.750;-3.396;2024-03-22T06:15:04;11.80;99.90
46758;DHT22;32509;47.750;-3.396;2024-03-22T06:17:34;11.80;99.90
46758;DHT22;32509;47.750;-3.396;2024-03-22T06:20:00;11.80;99.90
46758;DHT22;32509;47.750;-3.396;2024-03-22T06:22:26;11.70;99.90
46758;DHT22;32509;47.750;-3.396;2024-03-22T06:24:53;11.70;99.90
46758;DHT22;32509;47.750;-3.396;2024-03-22T06:27:19;11.70;99.90
46758;DHT22;32509;47.750;-3.396;2024-03-22T06:29:45;11.70;99.90
46758;DHT22;32509;47.750;-3.396;2024-03-22T06:32:11;11.70;99.90
46758;DHT22;32509;47.750;-3.396;2024-03-22T06:34:37;11.70;99.90
46758;DHT22;32509;47.750;-3.396;2024-03-22T06:37:04;11.70;99.90
46758;DHT22;32509;47.750;-3.396;2024-03-22T06:39:29;11.70;99.90
46758;DHT22;32509;47.750;-3.396;2024-03-22T06:41:55;11.70;99.90
46758;DHT22;32509;47.750;-3.396;2024-03-22T06:44:21;11.70;99.90
46758;DHT22;32509;47.750;-3.396;2024-03-22T06:46:47;11.80;99.90
46758;DHT22;32509;47.750;-3.396;2024-03-22T06:49:13;11.80;99.90
46758;DHT22;32509;47.750;-3.396;2024-03-22T06:51:39;11.80;99.90
46758;DHT22;32509;47.750;-3.396;2024-03-22T06:54:04;11.80;99.90
46758;DHT22;32509;47.750;-3.396;2024-03-22T06:56:30;11.80;99.90
46758;DHT22;32509;47.750;-3.396;2024-03-22T06:58:56;11.80;99.90
46758;DHT22;32509;47.750;-3.396;2024-03-22T07:01:22;11.80;99.90
46758;DHT22;32509;47.750;-3.396;2024-03-22T07:03:47;11.80;99.90
46758;DHT22;32509;47.750;-3.396;2024-03-22T07:06:16;11.70;99.90
46758;DHT22;32509;47.750;-3.396;2024-03-22T07:08:42;11.70;99.90
46758;DHT22;32509;47.750;-3.396;2024-03-22T07:11:08;11.70;99.90
46758;DHT22;32509;47.750;-3.396;2024-03-22T07:13:34;11.70;99.90
46758;DHT22;32509;47.750;-3.396;2024-03-22T07:16:00;11.70;99.90
46758;DHT22;32509;47.750;-3.396;2024-03-22T07:18:26;11.70;99.90
46758;DHT22;32509;47.750;-3.396;2024-03-22T07:20:51;11.60;99.90
46758;DHT22;32509;47.750;-3.396;2024-03-22T07:23:17;11.60;99.90
46758;DHT22;32509;47.750;-3.396;2024-03-22T07:25:43;11.60;99.90
46758;DHT22;32509;47.750;-3.396;2024-03-22T07:28:11;11.60;99.90
46758;DHT22;32509;47.750;-3.396;2024-03-22T07:30:37;11.60;99.90
46758;DHT22;32509;47.750;-3.396;2024-03-22T07:33:03;11.50;99.90
46758;DHT22;32509;47.750;-3.396;2024-03-22T07:35:29;11.50;99.90
46758;DHT22;32509;47.750;-3.396;2024-03-22T07:37:55;11.50;99.90
46758;DHT22;32509;47.750;-3.396;2024-03-22T07:40:21;11.50;99.90
46758;DHT22;32509;47.750;-3.396;2024-03-22T07:42:47;11.50;99.90
46758;DHT22;32509;47.750;-3.396;2024-03-22T07:45:13;11.40;99.90
46758;DHT22;32509;47.750;-3.396;2024-03-22T07:47:38;11.40;99.90
46758;DHT22;32509;47.750;-3.396;2024-03-22T07:50:07;11.50;99.90
46758;DHT22;32509;47.750;-3.396;2024-03-22T07:52:34;11.50;99.90
46758;DHT22;32509;47.750;-3.396;2024-03-22T07:54:59;11.50;99.90
46758;DHT22;32509;47.750;-3.396;2024-03-22T07:57:28;11.60;99.90
46758;DHT22;32509;47.750;-3.396;2024-03-22T07:59:59;11.60;99.90
46758;DHT22;32509;47.750;-3.396;2024-03-22T08:02:25;11.60;99.90
46758;DHT22;32509;47.750;-3.396;2024-03-22T08:04:50;11.50;99.90
46758;DHT22;32509;47.750;-3.396;2024-03-22T08:07:16;11.60;99.90
46758;DHT22;32509;47.750;-3.396;2024-03-22T08:09:42;11.50;99.90
46758;DHT22;32509;47.750;-3.396;2024-03-22T08:12:07;11.60;99.90
46758;DHT22;32509;47.750;-3.396;2024-03-22T08:14:33;11.60;99.90
46758;DHT22;32509;47.750;-3.396;2024-03-22T08:16:59;11.60;99.90
46758;DHT22;32509;47.750;-3.396;2024-03-22T08:19:25;11.70;99.90
46758;DHT22;32509;47.750;-3.396;2024-03-22T08:21:50;11.70;99.90
46758;DHT22;32509;47.750;-3.396;2024-03-22T08:24:18;11.70;99.90
46758;DHT22;32509;47.750;-3.396;2024-03-22T08:26:44;11.70;99.90
46758;DHT22;32509;47.750;-3.396;2024-03-22T08:29:15;11.70;99.90
46758;DHT22;32509;47.750;-3.396;2024-03-22T08:31:41;11.60;99.90
46758;DHT22;32509;47.750;-3.396;2024-03-22T08:34:08;11.70;99.90
46758;DHT22;32509;47.750;-3.396;2024-03-22T08:36:34;11.70;99.90
46758;DHT22;32509;47.750;-3.396;2024-03-22T08:39:00;11.70;99.90
46758;DHT22;32509;47.750;-3.396;2024-03-22T08:41:26;11.70;99.90
46758;DHT22;32509;47.750;-3.396;2024-03-22T08:43:51;11.70;99.90
46758;DHT22;32509;47.750;-3.396;2024-03-22T08:46:17;11.80;99.90
46758;DHT22;32509;47.750;-3.396;2024-03-22T08:48:43;11.80;99.90
46758;DHT22;32509;47.750;-3.396;2024-03-22T08:51:08;11.70;99.90
46758;DHT22;32509;47.750;-3.396;2024-03-22T08:53:34;11.70;99.90
46758;DHT22;32509;47.750;-3.396;2024-03-22T08:56:00;11.70;99.90
46758;DHT22;32509;47.750;-3.396;2024-03-22T08:58:26;11.80;99.90
46758;DHT22;32509;47.750;-3.396;2024-03-22T09:00:52;11.90;99.90
46758;DHT22;32509;47.750;-3.396;2024-03-22T09:03:17;11.80;99.90
46758;DHT22;32509;47.750;-3.396;2024-03-22T09:05:43;11.90;99.90
46758;DHT22;32509;47.750;-3.396;2024-03-22T09:08:09;11.90;99.90
46758;DHT22;32509;47.750;-3.396;2024-03-22T09:10:35;11.80;99.90
46758;DHT22;32509;47.750;-3.396;2024-03-22T09:13:01;11.90;99.90
46758;DHT22;32509;47.750;-3.396;2024-03-22T09:15:27;11.90;99.90
46758;DHT22;32509;47.750;-3.396;2024-03-22T09:17:52;11.90;99.90
46758;DHT22;32509;47.750;-3.396;2024-03-22T09:20:18;12.00;99.90
46758;DHT22;32509;47.750;-3.396;2024-03-22T09:22:44;12.00;99.90
46758;DHT22;32509;47.750;-3.396;2024-03-22T09:25:10;12.10;99.90
46758;DHT22;32509;47.750;-3.396;2024-03-22T09:27:35;12.10;99.90
46758;DHT22;32509;47.750;-3.396;2024-03-22T09:30:01;12.20;99.90
46758;DHT22;32509;47.750;-3.396;2024-03-22T09:32:29;12.30;99.90
46758;DHT22;32509;47.750;-3.396;2024-03-22T09:34:55;12.40;99.90
46758;DHT22;32509;47.750;-3.396;2024-03-22T09:37:21;12.40;99.90
46758;DHT22;32509;47.750;-3.396;2024-03-22T09:39:47;12.40;99.90
46758;DHT22;32509;47.750;-3.396;2024-03-22T09:42:16;12.50;99.90
46758;DHT22;32509;47.750;-3.396;2024-03-22T09:44:47;12.50;99.90
46758;DHT22;32509;47.750;-3.396;2024-03-22T09:47:17;12.50;99.90
46758;DHT22;32509;47.750;-3.396;2024-03-22T09:49:43;12.60;99.90
46758;DHT22;32509;47.750;-3.396;2024-03-22T09:52:13;12.60;99.90
46758;DHT22;32509;47.750;-3.396;2024-03-22T09:54:41;12.70;99.90
46758;DHT22;32509;47.750;-3.396;2024-03-22T09:57:18;12.70;99.90
46758;DHT22;32509;47.750;-3.396;2024-03-22T09:59:46;12.70;99.90
46758;DHT22;32509;47.750;-3.396;2024-03-22T10:02:13;12.80;99.90
46758;DHT22;32509;47.750;-3.396;2024-03-22T10:04:41;12.80;99.90
46758;DHT22;32509;47.750;-3.396;2024-03-22T10:07:08;12.80;99.90
46758;DHT22;32509;47.750;-3.396;2024-03-22T10:09:35;12.80;99.90
46758;DHT22;32509;47.750;-3.396;2024-03-22T10:12:01;12.90;99.90
46758;DHT22;32509;47.750;-3.396;2024-03-22T10:14:29;12.90;99.90
46758;DHT22;32509;47.750;-3.396;2024-03-22T10:16:55;13.00;99.90
46758;DHT22;32509;47.750;-3.396;2024-03-22T10:19:21;13.00;99.90
46758;DHT22;32509;47.750;-3.396;2024-03-22T10:22:00;13.10;99.90
46758;DHT22;32509;47.750;-3.396;2024-03-22T10:24:26;13.20;99.90
46758;DHT22;32509;47.750;-3.396;2024-03-22T10:26:52;13.20;99.90
46758;DHT22;32509;47.750;-3.396;2024-03-22T10:29:18;13.30;99.90
46758;DHT22;32509;47.750;-3.396;2024-03-22T10:31:45;13.20;99.90
46758;DHT22;32509;47.750;-3.396;2024-03-22T10:34:14;13.30;99.90
46758;DHT22;32509;47.750;-3.396;2024-03-22T10:36:40;13.30;99.90
46758;DHT22;32509;47.750;-3.396;2024-03-22T10:39:08;13.50;99.90
46758;DHT22;32509;47.750;-3.396;2024-03-22T10:41:34;13.50;99.90
46758;DHT22;32509;47.750;-3.396;2024-03-22T10:44:00;13.60;99.90
46758;DHT22;32509;47.750;-3.396;2024-03-22T10:46:30;13.70;99.90
46758;DHT22;32509;47.750;-3.396;2024-03-22T10:48:57;13.70;99.90
46758;DHT22;32509;47.750;-3.396;2024-03-22T10:51:26;13.70;99.90
46758;DHT22;32509;47.750;-3.396;2024-03-22T10:53:54;13.80;99.90
46758;DHT22;32509;47.750;-3.396;2024-03-22T10:56:21;13.90;99.90
46758;DHT22;32509;47.750;-3.396;2024-03-22T10:58:48;13.90;99.90
46758;DHT22;32509;47.750;-3.396;2024-03-22T11:01:22;13.90;99.90
46758;DHT22;32509;47.750;-3.396;2024-03-22T11:03:48;14.00;99.90
46758;DHT22;32509;47.750;-3.396;2024-03-22T11:06:18;14.10;99.90
46758;DHT22;32509;47.750;-3.396;2024-03-22T11:08:49;14.10;99.90
46758;DHT22;32509;47.750;-3.396;2024-03-22T11:11:17;14.10;99.90
46758;DHT22;32509;47.750;-3.396;2024-03-22T11:13:47;14.20;99.90
46758;DHT22;32509;47.750;-3.396;2024-03-22T11:16:14;14.20;99.90
46758;DHT22;32509;47.750;-3.396;2024-03-22T11:18:40;14.20;99.90
46758;DHT22;32509;47.750;-3.396;2024-03-22T11:21:06;14.20;99.90
46758;DHT22;32509;47.750;-3.396;2024-03-22T11:23:36;14.30;99.90
46758;DHT22;32509;47.750;-3.396;2024-03-22T11:26:02;14.40;99.90
46758;DHT22;32509;47.750;-3.396;2024-03-22T11:28:29;14.30;99.90
46758;DHT22;32509;47.750;-3.396;2024-03-22T11:30:55;14.40;99.90
46758;DHT22;32509;47.750;-3.396;2024-03-22T11:33:21;14.40;99.90
46758;DHT22;32509;47.750;-3.396;2024-03-22T11:35:47;14.40;99.90
46758;DHT22;32509;47.750;-3.396;2024-03-22T11:38:15;14.40;99.90
46758;DHT22;32509;47.750;-3.396;2024-03-22T11:40:43;14.40;99.90
46758;DHT22;32509;47.750;-3.396;2024-03-22T11:43:10;14.40;99.90
46758;DHT22;32509;47.750;-3.396;2024-03-22T11:45:36;14.50;99.90
46758;DHT22;32509;47.750;-3.396;2024-03-22T11:48:03;14.50;99.90
46758;DHT22;32509;47.750;-3.396;2024-03-22T11:50:29;14.60;99.90
46758;DHT22;32509;47.750;-3.396;2024-03-22T11:52:56;14.50;99.90
46758;DHT22;32509;47.750;-3.396;2024-03-22T11:55:21;14.60;99.90
46758;DHT22;32509;47.750;-3.396;2024-03-22T11:57:50;14.60;99.90
46758;DHT22;32509;47.750;-3.396;2024-03-22T12:00:18;14.70;99.90
46758;DHT22;32509;47.750;-3.396;2024-03-22T12:02:45;14.70;99.90
46758;DHT22;32509;47.750;-3.396;2024-03-22T12:05:11;14.60;99.90
46758;DHT22;32509;47.750;-3.396;2024-03-22T12:07:37;14.60;99.90
46758;DHT22;32509;47.750;-3.396;2024-03-22T12:10:03;14.60;99.90
46758;DHT22;32509;47.750;-3.396;2024-03-22T12:12:29;14.60;99.90
46758;DHT22;32509;47.750;-3.396;2024-03-22T12:14:55;14.60;99.90
46758;DHT22;32509;47.750;-3.396;2024-03-22T12:17:21;14.60;99.90
46758;DHT22;32509;47.750;-3.396;2024-03-22T12:19:47;14.50;99.90
46758;DHT22;32509;47.750;-3.396;2024-03-22T12:22:13;14.50;99.90
46758;DHT22;32509;47.750;-3.396;2024-03-22T12:24:38;14.50;99.90
46758;DHT22;32509;47.750;-3.396;2024-03-22T12:27:04;14.50;99.90
46758;DHT22;32509;47.750;-3.396;2024-03-22T12:29:34;14.60;99.90
46758;DHT22;32509;47.750;-3.396;2024-03-22T12:32:00;14.50;99.90
46758;DHT22;32509;47.750;-3.396;2024-03-22T12:34:27;14.60;99.90
46758;DHT22;32509;47.750;-3.396;2024-03-22T12:36:55;14.60;99.90
46758;DHT22;32509;47.750;-3.396;2024-03-22T12:39:20;14.60;99.90
46758;DHT22;32509;47.750;-3.396;2024-03-22T12:41:46;14.60;99.90
46758;DHT22;32509;47.750;-3.396;2024-03-22T12:44:12;14.60;99.90
46758;DHT22;32509;47.750;-3.396;2024-03-22T12:46:38;14.60;99.90
46758;DHT22;32509;47.750;-3.396;2024-03-22T12:49:04;14.60;99.90
46758;DHT22;32509;47.750;-3.396;2024-03-22T12:51:30;14.60;99.90
46758;DHT22;32509;47.750;-3.396;2024-03-22T12:53:55;14.70;99.90
46758;DHT22;32509;47.750;-3.396;2024-03-22T12:56:21;14.70;99.90
46758;DHT22;32509;47.750;-3.396;2024-03-22T12:58:47;14.60;99.90
46758;DHT22;32509;47.750;-3.396;2024-03-22T13:01:13;14.60;99.90
46758;DHT22;32509;47.750;-3.396;2024-03-22T13:03:39;14.60;99.90
46758;DHT22;32509;47.750;-3.396;2024-03-22T13:06:05;14.70;99.90
46758;DHT22;32509;47.750;-3.396;2024-03-22T13:08:31;14.70;99.90
46758;DHT22;32509;47.750;-3.396;2024-03-22T13:11:01;14.70;99.90
46758;DHT22;32509;47.750;-3.396;2024-03-22T13:13:27;14.70;99.90
46758;DHT22;32509;47.750;-3.396;2024-03-22T13:15:52;14.60;99.90
46758;DHT22;32509;47.750;-3.396;2024-03-22T13:18:18;14.70;99.90
46758;DHT22;32509;47.750;-3.396;2024-03-22T13:20:47;14.60;99.90
46758;DHT22;32509;47.750;-3.396;2024-03-22T13:23:12;14.60;99.90
46758;DHT22;32509;47.750;-3.396;2024-03-22T13:25:38;14.70;99.90
46758;DHT22;32509;47.750;-3.396;2024-03-22T13:28:04;14.60;99.90
46758;DHT22;32509;47.750;-3.396;2024-03-22T13:30:33;14.60;99.90
46758;DHT22;32509;47.750;-3.396;2024-03-22T13:33:01;14.70;99.90
46758;DHT22;32509;47.750;-3.396;2024-03-22T13:35:26;14.70;99.90
46758;DHT22;32509;47.750;-3.396;2024-03-22T13:37:52;14.70;99.90
46758;DHT22;32509;47.750;-3.396;2024-03-22T13:40:18;14.70;99.90
46758;DHT22;32509;47.750;-3.396;2024-03-22T13:42:44;14.70;99.90
46758;DHT22;32509;47.750;-3.396;2024-03-22T13:45:10;14.70;99.90
46758;DHT22;32509;47.750;-3.396;2024-03-22T13:47:35;14.70;99.90
46758;DHT22;32509;47.750;-3.396;2024-03-22T13:50:07;14.60;99.90
46758;DHT22;32509;47.750;-3.396;2024-03-22T13:52:36;14.70;99.90
46758;DHT22;32509;47.750;-3.396;2024-03-22T13:55:05;14.70;99.90
46758;DHT22;32509;47.750;-3.396;2024-03-22T13:57:34;14.70;99.90
46758;DHT22;32509;47.750;-3.396;2024-03-22T13:59:59;14.80;99.90
46758;DHT22;32509;47.750;-3.396;2024-03-22T14:02:28;14.80;99.90
46758;DHT22;32509;47.750;-3.396;2024-03-22T14:04:54;14.80;99.90
46758;DHT22;32509;47.750;-3.396;2024-03-22T14:07:19;14.90;99.90
46758;DHT22;32509;47.750;-3.396;2024-03-22T14:09:45;14.90;99.90
46758;DHT22;32509;47.750;-3.396;2024-03-22T14:12:11;14.90;99.90
46758;DHT22;32509;47.750;-3.396;2024-03-22T14:14:37;15.00;99.90
46758;DHT22;32509;47.750;-3.396;2024-03-22T14:17:03;14.90;99.90
46758;DHT22;32509;47.750;-3.396;2024-03-22T14:19:29;14.90;99.90
46758;DHT22;32509;47.750;-3.396;2024-03-22T14:21:54;14.80;99.90
46758;DHT22;32509;47.750;-3.396;2024-03-22T14:24:20;14.80;99.90
46758;DHT22;32509;47.750;-3.396;2024-03-22T14:26:46;14.80;99.90
46758;DHT22;32509;47.750;-3.396;2024-03-22T14:29:12;14.70;99.90
46758;DHT22;32509;47.750;-3.396;2024-03-22T14:31:38;14.60;99.90
46758;DHT22;32509;47.750;-3.396;2024-03-22T14:34:07;14.50;99.90
46758;DHT22;32509;47.750;-3.396;2024-03-22T14:36:33;14.50;99.90
46758;DHT22;32509;47.750;-3.396;2024-03-22T14:38:59;14.50;99.90
46758;DHT22;32509;47.750;-3.396;2024-03-22T14:41:25;14.50;99.90
46758;DHT22;32509;47.750;-3.396;2024-03-22T14:43:51;14.50;99.90
46758;DHT22;32509;47.750;-3.396;2024-03-22T14:46:18;14.40;99.90
46758;DHT22;32509;47.750;-3.396;2024-03-22T14:48:45;14.40;99.90
46758;DHT22;32509;47.750;-3.396;2024-03-22T14:51:11;14.40;99.90
46758;DHT22;32509;47.750;-3.396;2024-03-22T14:53:37;14.40;99.90
46758;DHT22;32509;47.750;-3.396;2024-03-22T14:56:03;14.40;99.90
46758;DHT22;32509;47.750;-3.396;2024-03-22T14:58:36;14.40;99.90
46758;DHT22;32509;47.750;-3.396;2024-03-22T15:01:03;14.40;99.90
46758;DHT22;32509;47.750;-3.396;2024-03-22T15:03:30;14.40;99.90
46758;DHT22;32509;47.750;-3.396;2024-03-22T15:05:58;14.40;99.90
46758;DHT22;32509;47.750;-3.396;2024-03-22T15:08:25;14.40;99.90
46758;DHT22;32509;47.750;-3.396;2024-03-22T15:10:52;14.40;99.90